Time;durP1;ratioP1;P1;durP2;ratioP2;P2;SDS_P1;SDS_P2;PMS_P1;PMS_P2;Temp;Humidity;BMP_temperature;BMP_pressure;BME280_temperature;BME280_humidity;BME280_pressure;Samples;Min_cycle;Max_cycle;Signal;HPM_P1;HPM_P2
2021/12/19 00:00:19;;;;;;;13.20;5.73;;;;;;;3.22;93.57;97829.25;5036173;28;20397;-71
2021/12/19 00:03:02;;;;;;;17.23;5.37;;;;;;;2.96;94.30;97815.31;5033655;28;21554;-70
2021/12/19 00:08:32;;;;;;;6.80;4.00;;;;;;;3.13;94.47;97797.69;5036683;28;20212;-70
2021/12/19 00:11:00;;;;;;;5.80;3.43;;;;;;;3.07;94.34;97805.91;5036430;28;20267;-69
2021/12/19 00:13:27;;;;;;;14.87;6.50;;;;;;;3.18;93.75;97786.09;5036668;28;20229;-70
2021/12/19 00:15:55;;;;;;;9.30;3.67;;;;;;;3.35;93.63;97798.06;5036527;28;20246;-71
2021/12/19 00:18:21;;;;;;;6.17;3.97;;;;;;;3.56;92.91;97801.91;5037325;28;20204;-71
2021/12/19 00:20:49;;;;;;;6.60;3.33;;;;;;;3.77;92.18;97804.00;5036528;28;20216;-70
2021/12/19 00:23:17;;;;;;;13.50;5.50;;;;;;;3.51;92.48;97799.59;5036280;28;20251;-71
2021/12/19 00:25:44;;;;;;;7.90;3.93;;;;;;;3.66;91.52;97799.47;5036546;28;20581;-71
2021/12/19 00:28:10;;;;;;;11.90;4.67;;;;;;;3.52;92.12;97806.47;5036761;28;20207;-71
2021/12/19 00:30:37;;;;;;;9.83;5.33;;;;;;;3.56;91.58;97820.16;5036262;28;20225;-70
2021/12/19 00:33:04;;;;;;;7.73;4.30;;;;;;;3.61;91.74;97816.31;5036038;28;20239;-70
2021/12/19 00:35:31;;;;;;;8.07;4.73;;;;;;;3.35;92.57;97821.53;5036858;28;20206;-71
2021/12/19 00:37:59;;;;;;;22.00;5.33;;;;;;;3.52;92.85;97826.50;5037241;28;20207;-71
2021/12/19 00:40:26;;;;;;;7.77;3.17;;;;;;;3.18;93.91;97806.06;5036387;28;20211;-70
2021/12/19 00:43:02;;;;;;;10.53;4.97;;;;;;;2.99;94.47;97799.47;5036363;28;20232;-69
2021/12/19 00:45:31;;;;;;;13.90;4.77;;;;;;;3.00;94.74;97788.97;5036917;28;20210;-69
2021/12/19 00:47:58;;;;;;;11.10;4.37;;;;;;;3.12;94.28;97785.63;5038564;28;20208;-70
2021/12/19 00:50:26;;;;;;;6.27;3.10;;;;;;;3.20;94.40;97784.22;5041139;28;20240;-70
2021/12/19 00:52:53;;;;;;;5.87;3.80;;;;;;;2.98;94.55;97788.25;5040661;28;20232;-70
2021/12/19 00:55:23;;;;;;;7.83;5.07;;;;;;;3.14;94.97;97784.63;5041005;28;20216;-69
2021/12/19 00:57:50;;;;;;;13.03;5.03;;;;;;;2.94;96.00;97776.34;5041072;28;20211;-70
2021/12/19 01:00:19;;;;;;;12.30;5.30;;;;;;;3.02;96.71;97774.09;5040818;28;20212;-72
2021/12/19 01:02:50;;;;;;;13.13;5.60;;;;;;;2.46;97.21;97774.09;5039354;28;20236;-69
2021/12/19 01:05:17;;;;;;;5.33;3.37;;;;;;;2.57;97.11;97776.03;5040165;28;20209;-70
2021/12/19 01:07:44;;;;;;;16.27;4.17;;;;;;;2.61;97.49;97777.53;5040839;28;20204;-71
2021/12/19 01:10:11;;;;;;;12.20;4.77;;;;;;;2.68;96.85;97771.88;5040542;28;20235;-69
2021/12/19 01:12:39;;;;;;;4.73;3.50;;;;;;;2.84;97.47;97758.75;5039062;28;20236;-70
2021/12/19 01:15:08;;;;;;;10.63;4.07;;;;;;;2.81;97.61;97767.59;5040373;28;20682;-70
2021/12/19 01:17:35;;;;;;;16.23;4.87;;;;;;;2.67;97.56;97762.41;5040392;28;20205;-71
2021/12/19 01:20:02;;;;;;;18.53;7.43;;;;;;;2.76;97.30;97761.84;5040562;28;20235;-71
2021/12/19 01:22:28;;;;;;;14.27;6.60;;;;;;;2.85;96.38;97757.84;5039534;28;20227;-70
2021/12/19 01:24:55;;;;;;;10.53;4.60;;;;;;;2.56;97.44;97749.19;5040339;28;20204;-70
2021/12/19 01:27:22;;;;;;;2.53;2.23;;;;;;;2.44;97.27;97755.16;5039957;28;20206;-70
2021/12/19 01:29:49;;;;;;;10.60;4.13;;;;;;;2.56;98.83;97763.97;5040387;28;20214;-70
2021/12/19 01:32:16;;;;;;;13.70;5.73;;;;;;;2.47;98.65;97759.31;5038826;28;20233;-71
2021/12/19 01:34:43;;;;;;;3.43;2.63;;;;;;;2.60;98.25;97761.09;5039968;28;20209;-70
2021/12/19 01:37:09;;;;;;;14.27;4.80;;;;;;;2.44;98.69;97765.56;5040300;28;20201;-71
2021/12/19 01:39:36;;;;;;;6.27;4.10;;;;;;;2.41;98.43;97755.31;5042100;28;20431;-70
2021/12/19 01:42:03;;;;;;;3.80;2.43;;;;;;;2.40;99.48;97767.59;5042260;28;20243;-70
2021/12/19 01:44:29;;;;;;;11.67;5.47;;;;;;;2.55;98.69;97763.13;5041369;28;20208;-70
2021/12/19 01:46:59;;;;;;;6.23;3.33;;;;;;;2.78;98.46;97764.34;5041941;28;20209;-70
2021/12/19 01:49:25;;;;;;;9.70;5.90;;;;;;;2.55;98.43;97768.34;5041762;28;21280;-69
2021/12/19 01:51:52;;;;;;;1.77;1.67;;;;;;;2.40;98.84;97770.19;5042216;28;20225;-70
2021/12/19 01:54:19;;;;;;;3.93;3.33;;;;;;;2.54;98.87;97755.41;5041530;28;20216;-69
2021/12/19 01:56:46;;;;;;;19.27;5.77;;;;;;;2.51;98.66;97753.84;5042804;28;20837;-70
2021/12/19 01:59:13;;;;;;;21.63;6.53;;;;;;;2.59;98.03;97756.81;5041229;28;20206;-69
2021/12/19 02:01:43;;;;;;;5.57;4.80;;;;;;;2.85;98.98;97750.03;5041832;28;20206;-70
2021/12/19 02:04:12;;;;;;;13.87;5.60;;;;;;;3.06;98.12;97750.38;5040942;28;20616;-70
2021/12/19 02:06:39;;;;;;;5.97;2.80;;;;;;;2.73;97.88;97736.00;5039157;28;21154;-70
2021/12/19 02:09:07;;;;;;;11.87;6.70;;;;;;;2.23;99.86;97750.38;5042098;28;20205;-70
2021/12/19 02:11:33;;;;;;;13.47;7.13;;;;;;;2.38;99.15;97749.47;5042206;28;20225;-70
2021/12/19 02:14:00;;;;;;;5.37;3.97;;;;;;;2.60;98.81;97748.06;5040682;28;20298;-70
2021/12/19 02:16:27;;;;;;;16.13;6.67;;;;;;;2.40;99.85;97751.97;5041566;28;20201;-70
2021/12/19 02:18:53;;;;;;;13.13;7.20;;;;;;;2.39;99.55;97737.28;5042717;28;20215;-70
2021/12/19 02:21:21;;;;;;;4.40;4.00;;;;;;;2.79;98.85;97739.97;5042572;28;20223;-71
2021/12/19 02:23:48;;;;;;;6.27;5.57;;;;;;;2.53;99.29;97752.00;5042124;28;20233;-69
2021/12/19 02:26:14;;;;;;;15.00;6.23;;;;;;;2.68;98.70;97758.03;5042133;28;20202;-70
2021/12/19 02:28:42;;;;;;;17.63;7.07;;;;;;;2.78;98.71;97761.75;5042200;28;20680;-70
2021/12/19 02:31:09;;;;;;;12.13;4.73;;;;;;;2.67;98.80;97752.00;5041169;28;20235;-70
2021/12/19 02:33:40;;;;;;;9.73;4.70;;;;;;;2.60;98.57;97744.66;5040518;28;20783;-70
2021/12/19 02:36:21;;;;;;;17.17;7.67;;;;;;;2.71;98.46;97737.00;5041806;28;20211;-69
2021/12/19 02:39:21;;;;;;;4.97;3.17;;;;;;;2.98;98.36;97730.97;5041126;28;20209;-70
2021/12/19 02:50:02;;;;;;;6.97;3.47;;;;;;;2.68;98.84;97737.22;5040069;28;20271;-70
2021/12/19 02:52:29;;;;;;;13.03;6.13;;;;;;;2.73;98.53;97746.41;5040103;28;20217;-69
2021/12/19 02:54:57;;;;;;;15.53;6.53;;;;;;;2.88;98.92;97742.88;5040683;28;20669;-70
2021/12/19 02:57:23;;;;;;;12.77;6.40;;;;;;;2.78;98.17;97743.53;5039437;28;20216;-70
2021/12/19 02:59:51;;;;;;;14.10;5.83;;;;;;;3.08;97.51;97732.91;5038703;28;20207;-69
2021/12/19 03:02:18;;;;;;;17.50;7.00;;;;;;;2.94;97.17;97734.69;5037746;28;20900;-68
2021/12/19 03:04:53;;;;;;;14.57;6.40;;;;;;;3.25;97.18;97726.63;5038725;28;20209;-70
2021/12/19 03:07:20;;;;;;;11.63;5.70;;;;;;;2.60;98.27;97729.03;5038426;28;20213;-70
2021/12/19 03:10:01;;;;;;;8.03;4.50;;;;;;;2.48;99.63;97733.22;5038472;28;20218;-70
2021/12/19 03:12:42;;;;;;;26.73;7.03;;;;;;;2.91;98.78;97724.44;5037174;28;20336;-70
2021/12/19 03:18:06;;;;;;;11.27;2.67;;;;;;;2.65;99.97;97709.59;5013298;28;20199;-69
2021/12/19 03:20:34;;;;;;;11.83;5.23;;;;;;;2.34;100.00;97721.94;5037297;28;20197;-68
2021/12/19 03:23:02;;;;;;;10.90;5.77;;;;;;;2.40;100.00;97711.19;5037865;28;20312;-71
2021/12/19 03:25:30;;;;;;;2.47;2.07;;;;;;;2.27;100.00;97706.81;5038130;28;20210;-70
2021/12/19 03:27:58;;;;;;;4.10;3.13;;;;;;;2.15;100.00;97705.78;5038338;28;20220;-69
2021/12/19 03:30:25;;;;;;;6.30;3.63;;;;;;;1.99;100.00;97714.56;5037745;28;20216;-70
2021/12/19 03:32:52;;;;;;;10.77;4.67;;;;;;;2.07;100.00;97710.56;5035952;28;20225;-71
2021/12/19 03:35:19;;;;;;;3.27;2.77;;;;;;;2.04;100.00;97707.34;5037694;28;20728;-69
2021/12/19 03:37:47;;;;;;;10.23;4.83;;;;;;;1.67;100.00;97719.94;5037597;28;20951;-69
2021/12/19 03:40:22;;;;;;;5.93;4.23;;;;;;;1.88;100.00;97719.53;5038663;28;20203;-69
2021/12/19 03:42:50;;;;;;;3.53;2.33;;;;;;;1.88;100.00;97724.75;5037171;28;20224;-70
2021/12/19 03:45:19;;;;;;;14.20;5.00;;;;;;;2.15;100.00;97730.94;5037792;28;20224;-68
2021/12/19 03:47:46;;;;;;;7.37;3.67;;;;;;;2.33;100.00;97714.25;5037494;28;20201;-70
2021/12/19 03:50:19;;;;;;;8.63;4.33;;;;;;;2.40;100.00;97715.56;5037594;28;20196;-71
2021/12/19 03:52:45;;;;;;;14.93;4.03;;;;;;;2.08;100.00;97706.22;5036663;28;20229;-71
2021/12/19 03:55:12;;;;;;;10.60;3.53;;;;;;;2.17;100.00;97705.69;5037718;28;20203;-70
2021/12/19 03:57:39;;;;;;;8.40;3.53;;;;;;;2.13;99.99;97702.44;5037044;28;20209;-68
2021/12/19 04:00:10;;;;;;;10.10;6.17;;;;;;;2.22;100.00;97696.69;5037704;28;20209;-71
2021/12/19 04:02:38;;;;;;;5.60;2.43;;;;;;;2.30;100.00;97696.22;5036939;28;20228;-71
2021/12/19 04:05:05;;;;;;;2.87;2.67;;;;;;;2.35;99.49;97687.22;5037461;28;20201;-69
2021/12/19 04:07:31;;;;;;;8.13;4.13;;;;;;;2.21;99.39;97671.59;5037086;28;20251;-70
2021/12/19 04:09:58;;;;;;;18.33;4.70;;;;;;;2.13;99.79;97660.00;5037265;28;20205;-70
2021/12/19 04:12:27;;;;;;;6.50;4.23;;;;;;;2.17;100.00;97671.88;5036491;28;20232;-69
2021/12/19 04:14:54;;;;;;;10.50;4.80;;;;;;;2.16;99.86;97676.22;5037605;28;20218;-70
2021/12/19 04:17:21;;;;;;;8.03;4.83;;;;;;;2.08;99.85;97675.03;5037216;28;20213;-71
2021/12/19 04:19:49;;;;;;;25.00;6.83;;;;;;;2.31;100.00;97670.13;5037403;28;20669;-71
2021/12/19 04:22:16;;;;;;;16.73;5.57;;;;;;;2.14;99.22;97656.44;5035181;28;20257;-71
2021/12/19 04:24:42;;;;;;;2.60;1.43;;;;;;;1.69;100.00;97669.56;5036605;28;21131;-69
2021/12/19 04:27:09;;;;;;;18.23;6.23;;;;;;;2.05;100.00;97654.41;5037548;28;20216;-70
2021/12/19 04:29:35;;;;;;;7.60;2.60;;;;;;;1.90;100.00;97645.75;5037003;28;20205;-70
2021/12/19 04:32:02;;;;;;;19.10;8.40;;;;;;;1.84;100.00;97650.47;5036691;28;20233;-68
2021/12/19 04:34:28;;;;;;;13.53;5.23;;;;;;;1.84;99.93;97653.91;5036798;28;20217;-69
2021/12/19 04:37:03;;;;;;;8.10;3.40;;;;;;;2.11;100.00;97643.66;5037019;28;20210;-70
2021/12/19 04:39:38;;;;;;;14.77;5.70;;;;;;;1.95;100.00;97641.13;5036841;28;20301;-70
2021/12/19 04:43:15;;;;;;;18.37;7.37;;;;;;;1.80;100.00;97638.59;5037027;28;20224;-71
2021/12/19 04:51:21;;;;;;;18.87;9.17;;;;;;;1.66;100.00;97622.97;4989410;28;20257;-70
2021/12/19 04:54:02;;;;;;;14.43;7.87;;;;;;;2.14;100.00;97620.03;5036286;28;20232;-70
2021/12/19 04:56:40;;;;;;;13.57;5.03;;;;;;;1.98;100.00;97620.13;5037065;28;20208;-70
2021/12/19 04:59:34;;;;;;;23.70;10.47;;;;;;;1.93;99.74;97637.75;5037012;28;20211;-70
2021/12/19 05:02:10;;;;;;;16.90;8.27;;;;;;;2.20;98.05;97632.69;5036543;28;20312;-70
2021/12/19 05:15:42;;;;;;;22.77;6.27;;;;;;;1.69;99.45;97647.94;5036945;28;20277;-71
2021/12/19 05:18:09;;;;;;;11.33;5.13;;;;;;;1.56;99.06;97647.00;5036406;28;20279;-69
2021/12/19 05:20:38;;;;;;;6.57;5.07;;;;;;;1.60;99.55;97649.31;5036582;28;20205;-71
2021/12/19 05:23:12;;;;;;;13.83;5.30;;;;;;;1.94;98.52;97638.63;5035553;28;20225;-70
2021/12/19 05:25:40;;;;;;;14.00;5.90;;;;;;;1.73;100.00;97634.69;5036781;28;20299;-71
2021/12/19 05:28:06;;;;;;;8.77;3.93;;;;;;;1.62;99.37;97638.84;5036223;28;20208;-72
2021/12/19 05:30:33;;;;;;;4.20;2.43;;;;;;;1.53;100.00;97642.00;5036587;28;20212;-71
2021/12/19 05:33:01;;;;;;;10.50;5.17;;;;;;;1.51;100.00;97642.03;5035986;28;20230;-72
2021/12/19 05:35:47;;;;;;;3.20;2.37;;;;;;;1.40;100.00;97647.03;5039943;28;20201;-69
2021/12/19 05:45:11;;;;;;;19.03;5.07;;;;;;;1.55;100.00;97633.16;4996573;28;20801;-70
2021/12/19 05:46:57;;;;;;;16.13;3.43;;;;;;;1.68;99.59;97615.94;4998219;28;20206;-70
2021/12/19 05:49:24;;;;;;;5.50;4.10;;;;;;;1.74;99.85;97615.56;5024564;28;20209;-70
2021/12/19 05:51:50;;;;;;;9.57;7.07;;;;;;;1.68;100.00;97613.34;5039418;28;20233;-72
2021/12/19 05:54:17;;;;;;;9.87;4.87;;;;;;;2.03;98.15;97612.09;5039475;28;20553;-72
2021/12/19 05:56:45;;;;;;;17.27;6.40;;;;;;;2.08;99.45;97620.44;5040301;28;20197;-70
2021/12/19 05:59:12;;;;;;;11.23;4.47;;;;;;;1.91;99.13;97634.44;5039666;28;20201;-70
2021/12/19 06:01:39;;;;;;;13.03;5.33;;;;;;;1.87;98.71;97621.69;5040022;28;20219;-71
2021/12/19 06:04:06;;;;;;;12.23;4.53;;;;;;;1.62;99.11;97623.28;5039626;28;20206;-71
2021/12/19 06:06:33;;;;;;;4.53;4.07;;;;;;;1.56;98.90;97623.63;5039029;28;20201;-70
2021/12/19 06:08:59;;;;;;;10.80;4.80;;;;;;;1.42;99.49;97642.59;5040083;28;20208;-70
2021/12/19 06:11:25;;;;;;;8.07;4.77;;;;;;;1.31;100.00;97636.31;5039316;28;20233;-70
2021/12/19 06:13:53;;;;;;;22.47;6.87;;;;;;;1.68;100.00;97623.75;5038848;28;20237;-70
2021/12/19 06:16:20;;;;;;;7.07;4.27;;;;;;;1.58;100.00;97625.19;5039359;28;20579;-70
2021/12/19 06:18:47;;;;;;;6.37;4.00;;;;;;;1.69;99.40;97632.34;5039899;28;20205;-71
2021/12/19 06:21:13;;;;;;;11.93;3.20;;;;;;;1.53;100.00;97635.03;5039087;28;21063;-69
2021/12/19 06:23:40;;;;;;;14.40;6.87;;;;;;;1.64;99.71;97624.00;5036341;28;20650;-72
2021/12/19 06:26:10;;;;;;;14.07;4.53;;;;;;;1.55;99.65;97621.94;5037422;28;20212;-70
2021/12/19 06:28:37;;;;;;;13.30;6.00;;;;;;;1.57;100.00;97628.72;5038836;28;20288;-70
2021/12/19 06:31:05;;;;;;;17.23;5.10;;;;;;;1.77;99.59;97623.19;5038235;28;20208;-70
2021/12/19 06:33:31;;;;;;;7.37;3.93;;;;;;;1.45;100.00;97624.25;5038070;28;20238;-72
2021/12/19 06:35:58;;;;;;;11.93;5.53;;;;;;;1.29;100.00;97631.22;5038518;28;20205;-71
2021/12/19 06:38:24;;;;;;;5.13;3.10;;;;;;;1.45;100.00;97619.06;5038537;28;20650;-71
2021/12/19 06:40:51;;;;;;;11.23;6.87;;;;;;;1.62;100.00;97613.69;5038412;28;20208;-71
2021/12/19 06:43:17;;;;;;;5.17;3.23;;;;;;;1.72;98.84;97612.25;5037615;28;20236;-71
2021/12/19 06:45:44;;;;;;;4.37;3.37;;;;;;;1.78;99.28;97598.03;5037253;28;20198;-71
2021/12/19 06:48:12;;;;;;;10.00;3.27;;;;;;;1.68;100.00;97612.50;5038537;28;20215;-71
2021/12/19 06:50:39;;;;;;;9.63;3.87;;;;;;;1.62;99.74;97621.50;5038296;28;20205;-70
2021/12/19 06:53:06;;;;;;;7.33;3.77;;;;;;;1.32;100.00;97622.44;5037221;28;20236;-71
2021/12/19 06:55:32;;;;;;;22.33;5.10;;;;;;;1.31;100.00;97625.94;5039817;28;20232;-71
2021/12/19 06:57:59;;;;;;;13.93;4.70;;;;;;;1.31;100.00;97621.59;5039233;28;20209;-70
2021/12/19 07:00:26;;;;;;;6.53;3.57;;;;;;;1.32;100.00;97612.03;5038620;28;20210;-71
2021/12/19 07:02:54;;;;;;;9.37;5.37;;;;;;;0.90;100.00;97619.66;5038657;28;20659;-71
2021/12/19 07:05:23;;;;;;;3.63;3.20;;;;;;;1.39;100.00;97614.19;5039652;28;20208;-71
2021/12/19 07:07:49;;;;;;;16.57;6.77;;;;;;;1.31;100.00;97616.41;5038734;28;20220;-72
2021/12/19 07:10:16;;;;;;;13.40;6.03;;;;;;;1.62;100.00;97605.91;5039052;28;20204;-71
2021/12/19 07:12:43;;;;;;;12.67;5.23;;;;;;;1.38;100.00;97606.50;5038298;28;20289;-71
2021/12/19 07:15:10;;;;;;;1.40;1.30;;;;;;;1.63;99.57;97591.16;5038984;28;20212;-71
2021/12/19 07:17:37;;;;;;;5.77;3.73;;;;;;;1.56;100.00;97595.88;5037881;28;20205;-70
2021/12/19 07:20:05;;;;;;;8.30;5.00;;;;;;;1.65;100.00;97597.91;5038557;28;20202;-72
2021/12/19 07:22:33;;;;;;;16.03;3.70;;;;;;;1.94;100.00;97597.03;5037503;28;20233;-72
2021/12/19 07:24:59;;;;;;;6.03;4.17;;;;;;;1.31;100.00;97602.56;5038507;28;20691;-70
2021/12/19 07:27:26;;;;;;;10.33;4.87;;;;;;;1.39;100.00;97600.41;5037984;28;20216;-71
2021/12/19 07:29:56;;;;;;;20.97;7.60;;;;;;;1.51;100.00;97597.91;5039850;28;20581;-69
2021/12/19 07:32:23;;;;;;;4.43;2.87;;;;;;;1.58;100.00;97601.81;5039307;28;20239;-67
2021/12/19 07:34:50;;;;;;;11.90;5.10;;;;;;;1.41;100.00;97614.97;5043011;28;20334;-68
2021/12/19 07:37:18;;;;;;;10.97;5.73;;;;;;;1.47;100.00;97624.16;5043294;28;20663;-70
2021/12/19 07:39:54;;;;;;;10.90;5.23;;;;;;;1.61;100.00;97617.22;5043467;28;20212;-68
2021/12/19 07:42:21;;;;;;;10.33;5.50;;;;;;;1.04;100.00;97629.28;5045926;28;20267;-70
2021/12/19 07:44:47;;;;;;;8.03;3.30;;;;;;;1.19;100.00;97625.81;5041987;28;20205;-68
2021/12/19 07:47:15;;;;;;;13.20;4.43;;;;;;;1.52;100.00;97602.16;5042650;28;20200;-68
2021/12/19 07:49:41;;;;;;;7.63;4.17;;;;;;;1.47;100.00;97600.78;5042267;28;20197;-68
2021/12/19 07:52:08;;;;;;;7.33;2.97;;;;;;;1.28;100.00;97602.75;5043508;28;20244;-69
2021/12/19 07:54:35;;;;;;;20.13;5.63;;;;;;;1.37;100.00;97594.44;5043498;28;21287;-69
2021/12/19 07:57:03;;;;;;;15.93;4.43;;;;;;;1.63;100.00;97585.94;5040259;28;20208;-69
2021/12/19 07:59:30;;;;;;;6.17;2.47;;;;;;;1.48;100.00;97579.06;5041164;28;20212;-70
2021/12/19 08:01:57;;;;;;;7.67;3.20;;;;;;;1.45;100.00;97577.50;5046626;28;20209;-70
2021/12/19 08:04:23;;;;;;;2.70;2.47;;;;;;;1.31;100.00;97585.25;5045994;28;20204;-70
2021/12/19 08:06:50;;;;;;;4.17;3.77;;;;;;;1.29;100.00;97592.28;5045085;28;20209;-69
2021/12/19 08:09:24;;;;;;;10.83;3.30;;;;;;;1.20;100.00;97591.97;5044643;28;20238;-69
2021/12/19 08:11:51;;;;;;;14.07;6.27;;;;;;;1.32;100.00;97581.75;5045234;28;20204;-70
2021/12/19 08:14:19;;;;;;;9.83;3.73;;;;;;;1.94;99.98;97571.03;5047727;28;20588;-69
2021/12/19 08:16:47;;;;;;;4.97;4.10;;;;;;;1.88;98.89;97571.41;5047802;28;20665;-69
2021/12/19 08:19:14;;;;;;;5.07;3.03;;;;;;;1.41;99.73;97573.41;5047726;28;20207;-69
2021/12/19 08:21:41;;;;;;;11.37;3.33;;;;;;;1.74;99.27;97578.38;5045219;28;20201;-69
2021/12/19 08:24:11;;;;;;;6.77;4.70;;;;;;;1.58;99.94;97567.19;5045523;28;21054;-70
2021/12/19 08:26:38;;;;;;;5.10;2.47;;;;;;;1.65;99.48;97561.56;5046103;28;20255;-71
2021/12/19 08:29:05;;;;;;;10.17;5.20;;;;;;;1.48;100.00;97560.91;5047378;28;20205;-71
2021/12/19 08:31:33;;;;;;;8.70;4.60;;;;;;;1.97;99.05;97561.31;5045106;28;20205;-71
2021/12/19 08:34:00;;;;;;;2.37;1.80;;;;;;;1.62;98.94;97564.34;5044693;28;20240;-71
2021/12/19 08:36:27;;;;;;;5.10;2.47;;;;;;;1.45;98.66;97568.84;5044715;28;20217;-71
2021/12/19 08:38:53;;;;;;;9.53;3.23;;;;;;;1.34;99.82;97568.66;5045283;28;20208;-71
2021/12/19 08:41:21;;;;;;;1.50;1.40;;;;;;;1.35;99.79;97565.97;5045732;28;20206;-71
2021/12/19 08:43:47;;;;;;;5.60;3.03;;;;;;;1.14;99.89;97561.19;5045271;28;20228;-71
2021/12/19 08:46:14;;;;;;;6.10;2.90;;;;;;;1.41;99.64;97560.44;5046691;28;20508;-71
2021/12/19 08:48:42;;;;;;;11.70;3.30;;;;;;;1.66;99.43;97560.63;5043684;28;20220;-71
2021/12/19 08:51:09;;;;;;;8.13;2.20;;;;;;;1.25;100.00;97558.81;5044239;28;20637;-72
2021/12/19 08:53:35;;;;;;;9.57;4.83;;;;;;;1.14;99.85;97555.16;5045428;28;20240;-71
2021/12/19 08:56:02;;;;;;;10.10;4.87;;;;;;;1.19;99.96;97554.78;5044600;28;20282;-71
2021/12/19 08:58:29;;;;;;;9.83;3.43;;;;;;;0.93;100.00;97561.56;5045976;28;20205;-71
2021/12/19 09:01:00;;;;;;;21.40;3.50;;;;;;;1.13;100.00;97553.47;5051374;28;20204;-71
2021/12/19 09:03:27;;;;;;;5.50;3.07;;;;;;;1.35;100.00;97545.19;5049683;28;20221;-71
2021/12/19 09:05:55;;;;;;;4.70;3.07;;;;;;;1.53;100.00;97535.50;5050890;28;20209;-71
2021/12/19 09:08:22;;;;;;;2.00;1.40;;;;;;;1.09;100.00;97542.44;5050504;28;20720;-71
2021/12/19 09:10:48;;;;;;;4.23;3.83;;;;;;;1.25;100.00;97538.03;5053745;28;20232;-71
2021/12/19 09:13:15;;;;;;;8.83;4.93;;;;;;;1.49;99.69;97545.22;5045742;28;20955;-71
2021/12/19 09:15:41;;;;;;;17.97;5.30;;;;;;;1.79;98.85;97535.56;5045062;28;20209;-71
2021/12/19 09:18:08;;;;;;;4.60;3.77;;;;;;;1.75;98.61;97533.28;5040978;28;20654;-71
2021/12/19 09:20:35;;;;;;;10.13;3.80;;;;;;;1.86;99.17;97529.09;5042528;28;20262;-71
2021/12/19 09:23:03;;;;;;;3.07;2.80;;;;;;;1.60;100.00;97524.63;5041231;28;20235;-71
2021/12/19 09:25:30;;;;;;;10.17;4.40;;;;;;;1.45;99.30;97525.56;5042773;28;20209;-71
2021/12/19 09:27:56;;;;;;;22.50;4.63;;;;;;;1.06;100.00;97536.56;5042912;28;20842;-70
2021/12/19 09:30:25;;;;;;;8.73;3.27;;;;;;;1.11;100.00;97560.50;5043273;28;20201;-70
2021/12/19 09:32:52;;;;;;;3.97;2.47;;;;;;;1.12;100.00;97564.78;5042585;28;20232;-70
2021/12/19 09:35:18;;;;;;;14.87;5.87;;;;;;;0.90;100.00;97559.97;5044317;28;20674;-70
2021/12/19 09:37:45;;;;;;;10.83;4.97;;;;;;;1.04;100.00;97554.00;5044419;28;20206;-71
2021/12/19 09:40:19;;;;;;;5.50;2.43;;;;;;;1.27;100.00;97544.81;5044648;28;20205;-71
2021/12/19 09:42:49;;;;;;;6.23;3.70;;;;;;;1.13;100.00;97558.69;5043847;28;20995;-71
2021/12/19 09:45:17;;;;;;;6.10;4.30;;;;;;;1.31;100.00;97550.63;5045044;28;20205;-71
2021/12/19 09:47:43;;;;;;;1.80;1.70;;;;;;;1.27;100.00;97539.63;5044343;28;20208;-71
2021/12/19 09:50:11;;;;;;;9.30;5.83;;;;;;;1.22;100.00;97536.47;5047465;28;20210;-70
2021/12/19 09:52:38;;;;;;;9.70;4.60;;;;;;;1.30;100.00;97533.41;5049741;28;20234;-71
2021/12/19 09:55:06;;;;;;;12.27;4.67;;;;;;;1.60;100.00;97519.44;5047155;28;20293;-70
2021/12/19 09:57:34;;;;;;;3.77;2.73;;;;;;;1.30;100.00;97516.06;5048104;28;20220;-70
2021/12/19 10:00:00;;;;;;;10.13;4.40;;;;;;;1.25;100.00;97520.69;5047808;28;20209;-70
2021/12/19 10:02:27;;;;;;;1.73;1.63;;;;;;;1.35;100.00;97508.84;5046073;28;21053;-71
2021/12/19 10:04:53;;;;;;;9.30;5.23;;;;;;;1.57;100.00;97495.41;5042808;28;20324;-71
2021/12/19 10:07:23;;;;;;;15.73;6.57;;;;;;;1.78;100.00;97486.31;5040997;28;20244;-70
2021/12/19 10:09:57;;;;;;;7.73;3.30;;;;;;;1.85;100.00;97478.06;5040767;28;20240;-71
2021/12/19 10:12:48;;;;;;;4.20;2.47;;;;;;;1.91;99.84;97470.69;5040387;28;20228;-71
2021/12/19 10:15:18;;;;;;;7.13;3.53;;;;;;;1.70;100.00;97463.38;5040956;28;20213;-70
2021/12/19 10:17:47;;;;;;;15.17;2.50;;;;;;;1.70;100.00;97463.38;5040513;28;20655;-70
2021/12/19 10:20:16;;;;;;;9.33;3.33;;;;;;;1.65;100.00;97459.41;5039314;28;20366;-70
2021/12/19 10:22:44;;;;;;;8.27;4.87;;;;;;;1.91;100.00;97451.69;5040525;28;20232;-70
2021/12/19 10:25:16;;;;;;;6.60;2.07;;;;;;;2.00;99.23;97440.72;5041755;28;20201;-70
2021/12/19 10:27:45;;;;;;;3.20;2.90;;;;;;;2.08;99.27;97449.69;5040301;28;20762;-71
2021/12/19 10:30:16;;;;;;;4.60;2.90;;;;;;;1.75;100.00;97439.75;5040928;28;20672;-71
2021/12/19 10:33:03;;;;;;;10.00;3.03;;;;;;;1.96;99.71;97429.66;5039682;28;20283;-70
2021/12/19 10:35:32;;;;;;;12.43;4.40;;;;;;;2.03;99.77;97436.13;5040456;28;20201;-71
2021/12/19 10:38:00;;;;;;;17.10;7.80;;;;;;;2.00;99.50;97425.13;5040755;28;20205;-71
2021/12/19 10:40:27;;;;;;;19.90;6.80;;;;;;;2.07;98.96;97418.59;5041067;28;20201;-71
2021/12/19 10:42:59;;;;;;;21.13;4.80;;;;;;;1.96;99.71;97413.22;5039386;28;20228;-71
2021/12/19 10:45:29;;;;;;;3.30;3.00;;;;;;;1.86;99.62;97417.34;5040859;28;20289;-71
2021/12/19 10:48:21;;;;;;;9.57;4.30;;;;;;;1.82;100.00;97406.31;5039718;28;20289;-71
2021/12/19 10:50:51;;;;;;;8.93;5.63;;;;;;;1.90;99.00;97417.06;5038278;28;21184;-71
2021/12/19 10:53:18;;;;;;;7.93;4.70;;;;;;;1.82;100.00;97408.09;5038824;28;20305;-70
2021/12/19 10:55:46;;;;;;;6.77;2.73;;;;;;;1.53;100.00;97411.66;5039338;28;20202;-70
2021/12/19 10:58:30;;;;;;;10.23;4.07;;;;;;;1.92;100.00;97406.56;5040072;28;20201;-71
2021/12/19 11:01:05;;;;;;;6.50;3.10;;;;;;;1.79;100.00;97395.25;5039950;28;20197;-71
2021/12/19 11:03:40;;;;;;;4.40;1.77;;;;;;;1.83;100.00;97381.16;5039817;28;20216;-71
2021/12/19 11:06:15;;;;;;;12.60;5.20;;;;;;;2.12;100.00;97377.53;5039808;28;20255;-71
2021/12/19 11:08:43;;;;;;;4.73;3.20;;;;;;;1.75;100.00;97375.59;5038612;28;20236;-71
2021/12/19 11:11:11;;;;;;;6.40;3.63;;;;;;;1.77;100.00;97365.13;5039452;28;20215;-71
2021/12/19 11:13:38;;;;;;;11.23;2.80;;;;;;;1.45;100.00;97369.75;5038052;28;20229;-71
2021/12/19 11:16:05;;;;;;;10.50;4.43;;;;;;;1.58;100.00;97364.59;5039490;28;20209;-71
2021/12/19 11:18:31;;;;;;;4.07;2.90;;;;;;;1.33;100.00;97367.88;5039127;28;20574;-71
2021/12/19 11:20:59;;;;;;;5.93;4.17;;;;;;;1.64;100.00;97357.25;5039764;28;20759;-71
2021/12/19 11:23:27;;;;;;;3.10;2.73;;;;;;;1.62;100.00;97366.09;5038617;28;20225;-70
2021/12/19 11:25:55;;;;;;;11.00;4.83;;;;;;;2.10;99.67;97353.41;5039922;28;20216;-71
2021/12/19 11:28:22;;;;;;;19.70;7.57;;;;;;;1.57;100.00;97345.59;5039183;28;20759;-70
2021/12/19 11:30:48;;;;;;;2.63;2.43;;;;;;;1.43;100.00;97345.63;5038928;28;20209;-71
2021/12/19 11:33:24;;;;;;;10.33;3.30;;;;;;;1.83;100.00;97343.03;5037891;28;20231;-71
2021/12/19 11:35:54;;;;;;;4.37;2.50;;;;;;;1.71;100.00;97339.53;5039548;28;20380;-70
2021/12/19 11:38:24;;;;;;;3.87;3.03;;;;;;;1.89;100.00;97336.59;5039744;28;20205;-70
2021/12/19 11:40:52;;;;;;;1.50;1.17;;;;;;;1.98;99.98;97334.22;5038705;28;20205;-70
2021/12/19 11:43:19;;;;;;;21.53;7.07;;;;;;;2.12;99.26;97331.56;5037601;28;21486;-71
2021/12/19 11:45:58;;;;;;;5.80;3.50;;;;;;;1.63;100.00;97342.63;5038760;28;20583;-71
2021/12/19 11:48:29;;;;;;;4.00;2.57;;;;;;;2.16;100.00;97332.22;5038244;28;20218;-71
2021/12/19 11:50:58;;;;;;;10.60;4.60;;;;;;;2.14;98.90;97318.47;5039105;28;20220;-71
2021/12/19 11:53:29;;;;;;;4.07;2.97;;;;;;;2.10;100.00;97320.44;5038119;28;20230;-71
2021/12/19 11:55:58;;;;;;;6.27;4.00;;;;;;;1.88;100.00;97311.53;5038894;28;20290;-71
2021/12/19 11:58:31;;;;;;;7.37;5.23;;;;;;;2.02;100.00;97303.69;5039766;28;20209;-70
2021/12/19 12:01:00;;;;;;;9.50;4.57;;;;;;;2.16;100.00;97298.41;5038380;28;20213;-71
2021/12/19 12:03:29;;;;;;;2.60;2.40;;;;;;;1.95;100.00;97290.25;5038733;28;20225;-71
2021/12/19 12:06:29;;;;;;;8.53;3.83;;;;;;;2.31;100.00;97294.81;5038105;28;20748;-70
2021/12/19 12:09:25;;;;;;;9.23;4.83;;;;;;;2.16;100.00;97288.84;5036457;28;20198;-71
2021/12/19 12:12:19;;;;;;;13.47;3.50;;;;;;;2.37;99.13;97283.97;5025289;28;20212;-71
2021/12/19 12:15:01;;;;;;;13.27;3.47;;;;;;;2.15;100.00;97278.53;5037357;28;20227;-71
2021/12/19 12:17:34;;;;;;;8.97;4.50;;;;;;;2.28;99.64;97266.38;5038286;28;20197;-71
2021/12/19 12:20:12;;;;;;;8.83;3.67;;;;;;;2.35;100.00;97260.69;5038605;28;20205;-71